createdAt,value
2024-03-11T00:10:50.536Z,-8
2024-03-11T00:25:51.410Z,-6
2024-03-11T00:40:52.586Z,-5
2024-03-11T00:55:48.527Z,5
2024-03-11T00:55:57.238Z,5
2024-03-11T01:11:00.091Z,5
2024-03-11T01:26:00.323Z,5
2024-03-11T01:41:01.699Z,5
2024-03-11T01:55:59.211Z,5
2024-03-11T01:56:08.267Z,5
2024-03-11T02:11:09.856Z,5
2024-03-11T02:26:10.427Z,5
2024-03-11T02:41:11.885Z,5
2024-03-11T02:56:09.227Z,5
2024-03-11T02:56:18.135Z,5
2024-03-11T03:11:19.644Z,5
2024-03-11T03:26:20.143Z,5
2024-03-11T03:41:23.112Z,5
2024-03-11T03:56:19.459Z,6
2024-03-11T03:56:28.337Z,6
2024-03-11T04:11:31.084Z,5
2024-03-11T04:26:31.730Z,5
2024-03-11T04:41:32.307Z,5
2024-03-11T04:56:29.975Z,5
2024-03-11T04:56:38.843Z,5
2024-03-11T05:11:40.744Z,5
2024-03-11T05:26:42.180Z,5
2024-03-11T05:41:42.429Z,5
2024-03-11T05:56:40.222Z,5
2024-03-11T05:56:50.265Z,5
2024-03-11T06:11:53.230Z,5
2024-03-11T06:26:53.225Z,5
2024-03-11T06:56:49.936Z,5
2024-03-11T06:56:58.666Z,5
2024-03-11T07:12:02.205Z,5
2024-03-11T07:27:05.735Z,5
2024-03-11T07:42:15.009Z,5
2024-03-11T07:57:01.610Z,4
2024-03-11T07:57:09.825Z,4
2024-03-11T08:12:17.386Z,4
2024-03-11T08:27:26.693Z,4
2024-03-11T08:37:39.075Z,4
2024-03-11T08:52:42.538Z,4
2024-03-11T08:57:09.725Z,4
2024-03-11T08:57:18.021Z,4
2024-03-11T09:12:19.482Z,4
2024-03-11T09:27:20.327Z,4
2024-03-11T09:42:21.362Z,4
2024-03-11T09:57:20.378Z,4
2024-03-11T09:57:28.835Z,4
2024-03-11T10:12:31.484Z,4
2024-03-11T10:27:32.904Z,4
2024-03-11T10:42:34.137Z,3
2024-03-11T10:57:30.694Z,3
2024-03-11T10:57:39.844Z,3
2024-03-11T11:12:41.956Z,3
2024-03-11T11:27:42.842Z,3
2024-03-11T11:42:43.406Z,3
2024-03-11T11:57:41.731Z,4
2024-03-11T11:57:53.832Z,4
2024-03-11T12:12:55.736Z,4
2024-03-11T12:27:59.839Z,3
2024-03-11T12:43:01.549Z,3
2024-03-11T12:57:50.498Z,1
2024-03-11T12:57:59.663Z,1
2024-03-11T13:13:02.059Z,1
2024-03-11T13:28:02.585Z,2
2024-03-11T13:43:05.031Z,2
2024-03-11T13:58:02.063Z,3
2024-03-11T13:58:10.947Z,3
2024-03-11T14:13:12.857Z,3
2024-03-11T14:28:13.996Z,3
2024-03-11T14:43:15.434Z,3
2024-03-11T14:58:11.456Z,4
2024-03-11T14:58:20.551Z,4
2024-03-11T15:13:24.240Z,4
2024-03-11T15:28:23.540Z,3
2024-03-11T15:43:33.170Z,3
2024-03-11T15:58:21.692Z,4
2024-03-11T15:58:32.664Z,4
2024-03-11T16:13:34.465Z,3
2024-03-11T16:28:38.310Z,3
2024-03-11T16:43:36.835Z,3
2024-03-11T16:58:31.680Z,-6
2024-03-11T16:58:40.221Z,-6
2024-03-11T17:13:42.719Z,-4
2024-03-11T17:28:46.104Z,-3
2024-03-11T17:43:44.288Z,-3
2024-03-11T17:58:42.077Z,4
2024-03-11T17:58:50.594Z,4
2024-03-11T18:13:54.853Z,3
2024-03-11T18:28:53.639Z,3
2024-03-11T18:43:53.648Z,3
2024-03-11T18:58:51.622Z,1
2024-03-11T18:59:00.216Z,1
2024-03-11T19:14:01.697Z,1
2024-03-11T19:29:02.174Z,2
2024-03-11T19:44:03.098Z,2
2024-03-11T19:59:04.519Z,3
2024-03-11T19:59:13.614Z,3
2024-03-11T20:14:25.582Z,3
2024-03-11T20:29:26.737Z,3
2024-03-11T20:44:27.733Z,3
2024-03-11T20:59:12.233Z,1
2024-03-11T20:59:20.703Z,1
2024-03-11T21:14:22.002Z,1
2024-03-11T21:29:25.187Z,2
2024-03-11T21:44:24.614Z,2
2024-03-11T21:59:22.484Z,1
2024-03-11T21:59:31.232Z,1
2024-03-11T22:14:34.075Z,1
2024-03-11T22:29:35.118Z,2
2024-03-11T22:44:34.848Z,2
2024-03-11T22:59:35.018Z,1
2024-03-11T22:59:43.321Z,1
2024-03-11T23:14:54.813Z,1
2024-03-11T23:29:56.080Z,1
2024-03-11T23:44:56.810Z,1
2024-03-11T23:59:45.239Z,1
2024-03-11T23:59:53.777Z,1
